sensor_id;sensor_type;location;lat;lon;timestamp;temperature;humidity
20568;DHT22;10442;49.932;11.592;2024-01-10T00:01:26;-4.00;59.80
20568;DHT22;10442;49.932;11.592;2024-01-10T00:03:56;-4.00;59.60
20568;DHT22;10442;49.932;11.592;2024-01-10T00:06:25;-4.00;59.60
20568;DHT22;10442;49.932;11.592;2024-01-10T00:08:52;-4.00;59.60
20568;DHT22;10442;49.932;11.592;2024-01-10T00:11:20;-4.00;59.70
20568;DHT22;10442;49.932;11.592;2024-01-10T00:13:48;-4.00;59.80
20568;DHT22;10442;49.932;11.592;2024-01-10T00:16:15;-4.00;59.90
20568;DHT22;10442;49.932;11.592;2024-01-10T00:18:43;-4.00;60.70
20568;DHT22;10442;49.932;11.592;2024-01-10T00:21:10;-4.10;59.90
20568;DHT22;10442;49.932;11.592;2024-01-10T00:23:38;-4.00;60.00
20568;DHT22;10442;49.932;11.592;2024-01-10T00:26:05;-4.10;60.00
20568;DHT22;10442;49.932;11.592;2024-01-10T00:28:34;-4.10;60.20
20568;DHT22;10442;49.932;11.592;2024-01-10T00:31:02;-4.10;60.40
20568;DHT22;10442;49.932;11.592;2024-01-10T00:33:30;-4.10;60.40
20568;DHT22;10442;49.932;11.592;2024-01-10T00:35:57;-4.10;60.30
20568;DHT22;10442;49.932;11.592;2024-01-10T00:38:25;-4.10;60.40
20568;DHT22;10442;49.932;11.592;2024-01-10T00:40:52;-4.10;60.40
20568;DHT22;10442;49.932;11.592;2024-01-10T00:43:19;-4.10;60.50
20568;DHT22;10442;49.932;11.592;2024-01-10T00:45:47;-4.10;60.50
20568;DHT22;10442;49.932;11.592;2024-01-10T00:48:15;-4.10;60.50
20568;DHT22;10442;49.932;11.592;2024-01-10T00:50:44;-4.10;60.60
20568;DHT22;10442;49.932;11.592;2024-01-10T00:53:11;-4.20;60.60
20568;DHT22;10442;49.932;11.592;2024-01-10T00:55:39;-4.20;60.50
20568;DHT22;10442;49.932;11.592;2024-01-10T00:58:06;-4.20;60.70
20568;DHT22;10442;49.932;11.592;2024-01-10T01:00:34;-4.20;60.90
20568;DHT22;10442;49.932;11.592;2024-01-10T01:03:03;-4.20;61.00
20568;DHT22;10442;49.932;11.592;2024-01-10T01:05:30;-4.30;61.00
20568;DHT22;10442;49.932;11.592;2024-01-10T01:07:59;-4.30;61.20
20568;DHT22;10442;49.932;11.592;2024-01-10T01:10:27;-4.30;61.30
20568;DHT22;10442;49.932;11.592;2024-01-10T01:12:55;-4.20;61.40
20568;DHT22;10442;49.932;11.592;2024-01-10T01:15:22;-4.20;61.60
20568;DHT22;10442;49.932;11.592;2024-01-10T01:17:50;-4.20;61.60
20568;DHT22;10442;49.932;11.592;2024-01-10T01:20:18;-4.20;61.60
20568;DHT22;10442;49.932;11.592;2024-01-10T01:22:47;-4.10;61.80
20568;DHT22;10442;49.932;11.592;2024-01-10T01:25:14;-4.20;61.70
20568;DHT22;10442;49.932;11.592;2024-01-10T01:27:42;-4.20;61.70
20568;DHT22;10442;49.932;11.592;2024-01-10T01:30:10;-4.20;61.60
20568;DHT22;10442;49.932;11.592;2024-01-10T01:32:38;-4.20;61.60
20568;DHT22;10442;49.932;11.592;2024-01-10T01:35:06;-4.20;61.70
20568;DHT22;10442;49.932;11.592;2024-01-10T01:37:33;-4.20;61.80
20568;DHT22;10442;49.932;11.592;2024-01-10T01:40:01;-4.30;61.70
20568;DHT22;10442;49.932;11.592;2024-01-10T01:42:28;-4.30;61.70
20568;DHT22;10442;49.932;11.592;2024-01-10T01:44:56;-4.30;61.60
20568;DHT22;10442;49.932;11.592;2024-01-10T01:47:24;-4.20;61.60
20568;DHT22;10442;49.932;11.592;2024-01-10T01:49:54;-4.20;61.70
20568;DHT22;10442;49.932;11.592;2024-01-10T01:52:22;-4.20;61.60
20568;DHT22;10442;49.932;11.592;2024-01-10T01:54:50;-4.20;61.70
20568;DHT22;10442;49.932;11.592;2024-01-10T01:57:19;-4.20;61.80
20568;DHT22;10442;49.932;11.592;2024-01-10T01:59:47;-4.20;61.90
20568;DHT22;10442;49.932;11.592;2024-01-10T02:02:16;-4.20;62.00
20568;DHT22;10442;49.932;11.592;2024-01-10T02:04:46;-4.20;61.90
20568;DHT22;10442;49.932;11.592;2024-01-10T02:07:15;-4.20;61.90
20568;DHT22;10442;49.932;11.592;2024-01-10T02:09:42;-4.20;61.80
20568;DHT22;10442;49.932;11.592;2024-01-10T02:12:09;-4.20;61.60
20568;DHT22;10442;49.932;11.592;2024-01-10T02:14:37;-4.10;61.00
20568;DHT22;10442;49.932;11.592;2024-01-10T02:17:05;-4.00;60.20
20568;DHT22;10442;49.932;11.592;2024-01-10T02:19:32;-3.80;60.00
20568;DHT22;10442;49.932;11.592;2024-01-10T02:22:02;-3.60;59.60
20568;DHT22;10442;49.932;11.592;2024-01-10T02:24:30;-3.30;59.10
20568;DHT22;10442;49.932;11.592;2024-01-10T02:26:57;-3.10;58.50
20568;DHT22;10442;49.932;11.592;2024-01-10T02:29:25;-2.80;58.20
20568;DHT22;10442;49.932;11.592;2024-01-10T02:31:52;-2.50;57.70
20568;DHT22;10442;49.932;11.592;2024-01-10T02:34:20;-2.30;57.40
20568;DHT22;10442;49.932;11.592;2024-01-10T02:36:47;-2.20;57.00
20568;DHT22;10442;49.932;11.592;2024-01-10T02:39:15;-2.00;56.70
20568;DHT22;10442;49.932;11.592;2024-01-10T02:41:43;-1.90;56.10
20568;DHT22;10442;49.932;11.592;2024-01-10T02:44:10;-1.80;55.90
20568;DHT22;10442;49.932;11.592;2024-01-10T02:46:38;-1.70;56.20
20568;DHT22;10442;49.932;11.592;2024-01-10T02:49:05;-1.60;55.20
20568;DHT22;10442;49.932;11.592;2024-01-10T02:51:33;-1.50;55.00
20568;DHT22;10442;49.932;11.592;2024-01-10T02:54:00;-1.40;55.00
20568;DHT22;10442;49.932;11.592;2024-01-10T02:56:27;-1.40;54.90
20568;DHT22;10442;49.932;11.592;2024-01-10T02:58:55;-1.30;54.80
20568;DHT22;10442;49.932;11.592;2024-01-10T03:01:22;-1.30;54.60
20568;DHT22;10442;49.932;11.592;2024-01-10T03:03:50;-1.30;54.50
20568;DHT22;10442;49.932;11.592;2024-01-10T03:06:17;-1.20;54.50
20568;DHT22;10442;49.932;11.592;2024-01-10T03:08:45;-1.20;54.50
20568;DHT22;10442;49.932;11.592;2024-01-10T03:11:12;-1.20;54.40
20568;DHT22;10442;49.932;11.592;2024-01-10T03:13:40;-1.20;54.30
20568;DHT22;10442;49.932;11.592;2024-01-10T03:16:07;-1.20;54.40
20568;DHT22;10442;49.932;11.592;2024-01-10T03:18:36;-1.20;54.30
20568;DHT22;10442;49.932;11.592;2024-01-10T03:21:05;-1.20;55.20
20568;DHT22;10442;49.932;11.592;2024-01-10T03:23:33;-1.20;54.90
20568;DHT22;10442;49.932;11.592;2024-01-10T03:26:00;-1.30;54.90
20568;DHT22;10442;49.932;11.592;2024-01-10T03:28:28;-1.30;55.10
20568;DHT22;10442;49.932;11.592;2024-01-10T03:30:55;-1.50;55.30
20568;DHT22;10442;49.932;11.592;2024-01-10T03:33:23;-1.60;55.70
20568;DHT22;10442;49.932;11.592;2024-01-10T03:35:50;-1.70;56.00
20568;DHT22;10442;49.932;11.592;2024-01-10T03:38:18;-1.80;56.20
20568;DHT22;10442;49.932;11.592;2024-01-10T03:40:46;-2.00;56.40
20568;DHT22;10442;49.932;11.592;2024-01-10T03:43:13;-2.10;56.60
20568;DHT22;10442;49.932;11.592;2024-01-10T03:45:41;-2.20;56.80
20568;DHT22;10442;49.932;11.592;2024-01-10T03:48:08;-2.30;57.00
20568;DHT22;10442;49.932;11.592;2024-01-10T03:50:36;-2.40;57.30
20568;DHT22;10442;49.932;11.592;2024-01-10T03:53:04;-2.50;57.50
20568;DHT22;10442;49.932;11.592;2024-01-10T03:55:31;-2.60;57.70
20568;DHT22;10442;49.932;11.592;2024-01-10T03:57:59;-2.60;57.80
20568;DHT22;10442;49.932;11.592;2024-01-10T04:00:26;-2.80;58.00
20568;DHT22;10442;49.932;11.592;2024-01-10T04:02:54;-2.70;58.20
20568;DHT22;10442;49.932;11.592;2024-01-10T04:05:21;-2.90;58.10
20568;DHT22;10442;49.932;11.592;2024-01-10T04:07:49;-2.90;58.80
20568;DHT22;10442;49.932;11.592;2024-01-10T04:10:17;-3.00;58.20
20568;DHT22;10442;49.932;11.592;2024-01-10T04:12:44;-3.00;58.30
20568;DHT22;10442;49.932;11.592;2024-01-10T04:15:12;-3.10;58.30
20568;DHT22;10442;49.932;11.592;2024-01-10T04:17:39;-3.10;58.40
20568;DHT22;10442;49.932;11.592;2024-01-10T04:20:08;-3.20;58.40
20568;DHT22;10442;49.932;11.592;2024-01-10T04:22:36;-3.30;59.20
20568;DHT22;10442;49.932;11.592;2024-01-10T04:25:07;-3.30;58.70
20568;DHT22;10442;49.932;11.592;2024-01-10T04:27:35;-3.40;58.80
20568;DHT22;10442;49.932;11.592;2024-01-10T04:30:02;-3.40;58.90
20568;DHT22;10442;49.932;11.592;2024-01-10T04:32:29;-3.40;59.00
20568;DHT22;10442;49.932;11.592;2024-01-10T04:34:57;-3.40;59.00
20568;DHT22;10442;49.932;11.592;2024-01-10T04:37:24;-3.50;59.10
20568;DHT22;10442;49.932;11.592;2024-01-10T04:39:53;-3.50;59.10
20568;DHT22;10442;49.932;11.592;2024-01-10T04:42:21;-3.50;59.20
20568;DHT22;10442;49.932;11.592;2024-01-10T04:44:48;-3.60;59.30
20568;DHT22;10442;49.932;11.592;2024-01-10T04:47:16;-3.60;59.40
20568;DHT22;10442;49.932;11.592;2024-01-10T04:49:44;-3.60;59.60
20568;DHT22;10442;49.932;11.592;2024-01-10T04:52:11;-3.60;59.60
20568;DHT22;10442;49.932;11.592;2024-01-10T04:54:39;-3.70;59.50
20568;DHT22;10442;49.932;11.592;2024-01-10T04:57:07;-3.70;59.50
20568;DHT22;10442;49.932;11.592;2024-01-10T04:59:37;-3.70;59.60
20568;DHT22;10442;49.932;11.592;2024-01-10T05:02:04;-3.70;59.60
20568;DHT22;10442;49.932;11.592;2024-01-10T05:04:32;-3.80;59.70
20568;DHT22;10442;49.932;11.592;2024-01-10T05:06:59;-3.80;59.80
20568;DHT22;10442;49.932;11.592;2024-01-10T05:09:27;-3.80;59.80
20568;DHT22;10442;49.932;11.592;2024-01-10T05:11:55;-3.90;59.90
20568;DHT22;10442;49.932;11.592;2024-01-10T05:14:22;-3.90;59.90
20568;DHT22;10442;49.932;11.592;2024-01-10T05:16:51;-3.90;60.10
20568;DHT22;10442;49.932;11.592;2024-01-10T05:19:20;-3.90;60.10
20568;DHT22;10442;49.932;11.592;2024-01-10T05:21:48;-3.90;60.10
20568;DHT22;10442;49.932;11.592;2024-01-10T05:24:16;-3.90;60.20
20568;DHT22;10442;49.932;11.592;2024-01-10T05:26:45;-4.00;60.20
20568;DHT22;10442;49.932;11.592;2024-01-10T05:29:18;-4.00;60.30
20568;DHT22;10442;49.932;11.592;2024-01-10T05:31:47;-4.00;60.50
20568;DHT22;10442;49.932;11.592;2024-01-10T05:34:14;-4.00;60.60
20568;DHT22;10442;49.932;11.592;2024-01-10T05:36:43;-4.00;60.80
20568;DHT22;10442;49.932;11.592;2024-01-10T05:39:10;-4.00;60.90
20568;DHT22;10442;49.932;11.592;2024-01-10T05:41:38;-4.10;60.90
20568;DHT22;10442;49.932;11.592;2024-01-10T05:44:09;-4.10;60.90
20568;DHT22;10442;49.932;11.592;2024-01-10T05:46:36;-4.10;60.90
20568;DHT22;10442;49.932;11.592;2024-01-10T05:49:06;-4.10;60.90
20568;DHT22;10442;49.932;11.592;2024-01-10T05:51:34;-4.10;60.90
20568;DHT22;10442;49.932;11.592;2024-01-10T05:54:01;-4.10;60.90
20568;DHT22;10442;49.932;11.592;2024-01-10T05:56:29;-4.10;60.90
20568;DHT22;10442;49.932;11.592;2024-01-10T05:58:56;-4.10;60.90
20568;DHT22;10442;49.932;11.592;2024-01-10T06:01:25;-4.10;60.90
20568;DHT22;10442;49.932;11.592;2024-01-10T06:03:52;-4.10;61.00
20568;DHT22;10442;49.932;11.592;2024-01-10T06:06:21;-4.20;60.90
20568;DHT22;10442;49.932;11.592;2024-01-10T06:08:51;-4.20;61.10
20568;DHT22;10442;49.932;11.592;2024-01-10T06:11:19;-4.20;61.20
20568;DHT22;10442;49.932;11.592;2024-01-10T06:13:46;-4.20;61.50
20568;DHT22;10442;49.932;11.592;2024-01-10T06:16:23;-4.20;61.60
20568;DHT22;10442;49.932;11.592;2024-01-10T06:18:51;-4.20;61.70
20568;DHT22;10442;49.932;11.592;2024-01-10T06:21:19;-4.30;61.80
20568;DHT22;10442;49.932;11.592;2024-01-10T06:23:47;-4.20;61.80
20568;DHT22;10442;49.932;11.592;2024-01-10T06:26:17;-4.30;61.80
20568;DHT22;10442;49.932;11.592;2024-01-10T06:28:45;-4.30;61.90
20568;DHT22;10442;49.932;11.592;2024-01-10T06:31:14;-4.30;61.80
20568;DHT22;10442;49.932;11.592;2024-01-10T06:33:41;-4.30;61.90
20568;DHT22;10442;49.932;11.592;2024-01-10T06:36:09;-4.30;62.00
20568;DHT22;10442;49.932;11.592;2024-01-10T06:38:41;-4.30;62.10
20568;DHT22;10442;49.932;11.592;2024-01-10T06:41:09;-4.30;62.10
20568;DHT22;10442;49.932;11.592;2024-01-10T06:43:37;-4.30;62.20
20568;DHT22;10442;49.932;11.592;2024-01-10T06:46:06;-4.30;62.40
20568;DHT22;10442;49.932;11.592;2024-01-10T06:48:34;-4.30;62.40
20568;DHT22;10442;49.932;11.592;2024-01-10T06:51:10;-4.30;62.40
20568;DHT22;10442;49.932;11.592;2024-01-10T06:53:39;-4.30;62.30
20568;DHT22;10442;49.932;11.592;2024-01-10T06:56:09;-4.30;62.40
20568;DHT22;10442;49.932;11.592;2024-01-10T06:58:38;-4.30;62.50
20568;DHT22;10442;49.932;11.592;2024-01-10T07:01:15;-4.30;62.70
20568;DHT22;10442;49.932;11.592;2024-01-10T07:03:44;-4.30;62.80
20568;DHT22;10442;49.932;11.592;2024-01-10T07:06:12;-4.30;62.90
20568;DHT22;10442;49.932;11.592;2024-01-10T07:08:44;-4.30;63.00
20568;DHT22;10442;49.932;11.592;2024-01-10T07:11:12;-4.20;63.10
20568;DHT22;10442;49.932;11.592;2024-01-10T07:13:42;-4.20;63.10
20568;DHT22;10442;49.932;11.592;2024-01-10T07:16:12;-4.30;63.00
20568;DHT22;10442;49.932;11.592;2024-01-10T07:18:43;-4.30;63.20
20568;DHT22;10442;49.932;11.592;2024-01-10T07:21:13;-4.30;63.20
20568;DHT22;10442;49.932;11.592;2024-01-10T07:23:40;-4.30;63.30
20568;DHT22;10442;49.932;11.592;2024-01-10T07:26:13;-4.30;63.30
20568;DHT22;10442;49.932;11.592;2024-01-10T07:28:44;-4.20;63.20
20568;DHT22;10442;49.932;11.592;2024-01-10T07:31:11;-4.20;63.10
20568;DHT22;10442;49.932;11.592;2024-01-10T07:33:40;-4.20;63.10
20568;DHT22;10442;49.932;11.592;2024-01-10T07:36:08;-4.20;63.10
20568;DHT22;10442;49.932;11.592;2024-01-10T07:38:36;-4.20;63.00
20568;DHT22;10442;49.932;11.592;2024-01-10T07:41:04;-4.20;63.20
20568;DHT22;10442;49.932;11.592;2024-01-10T07:43:32;-4.10;63.40
20568;DHT22;10442;49.932;11.592;2024-01-10T07:46:00;-4.10;63.60
20568;DHT22;10442;49.932;11.592;2024-01-10T07:48:28;-3.90;64.10
20568;DHT22;10442;49.932;11.592;2024-01-10T07:50:59;-3.90;64.20
20568;DHT22;10442;49.932;11.592;2024-01-10T07:53:27;-3.80;64.30
20568;DHT22;10442;49.932;11.592;2024-01-10T07:55:55;-3.60;64.30
20568;DHT22;10442;49.932;11.592;2024-01-10T07:58:24;-3.40;64.40
20568;DHT22;10442;49.932;11.592;2024-01-10T08:00:52;-3.20;64.40
20568;DHT22;10442;49.932;11.592;2024-01-10T08:03:21;-3.00;64.40
20568;DHT22;10442;49.932;11.592;2024-01-10T08:05:49;-2.80;64.10
20568;DHT22;10442;49.932;11.592;2024-01-10T08:08:17;-2.50;63.80
20568;DHT22;10442;49.932;11.592;2024-01-10T08:10:45;-2.30;63.40
20568;DHT22;10442;49.932;11.592;2024-01-10T08:13:14;-2.00;63.10
20568;DHT22;10442;49.932;11.592;2024-01-10T08:15:42;-1.90;62.70
20568;DHT22;10442;49.932;11.592;2024-01-10T08:18:11;-1.80;62.20
20568;DHT22;10442;49.932;11.592;2024-01-10T08:20:39;-1.70;61.70
20568;DHT22;10442;49.932;11.592;2024-01-10T08:23:07;-1.60;61.50
20568;DHT22;10442;49.932;11.592;2024-01-10T08:25:36;-1.60;61.30
20568;DHT22;10442;49.932;11.592;2024-01-10T08:28:06;-1.60;61.10
20568;DHT22;10442;49.932;11.592;2024-01-10T08:30:36;-1.60;61.10
20568;DHT22;10442;49.932;11.592;2024-01-10T08:33:05;-1.60;61.10
20568;DHT22;10442;49.932;11.592;2024-01-10T08:35:33;-1.60;61.10
20568;DHT22;10442;49.932;11.592;2024-01-10T08:38:01;-1.60;61.20
20568;DHT22;10442;49.932;11.592;2024-01-10T08:40:32;-1.60;61.40
20568;DHT22;10442;49.932;11.592;2024-01-10T08:43:03;-1.60;61.60
20568;DHT22;10442;49.932;11.592;2024-01-10T08:45:30;-1.50;61.70
20568;DHT22;10442;49.932;11.592;2024-01-10T08:47:57;-1.50;61.80
20568;DHT22;10442;49.932;11.592;2024-01-10T08:50:26;-1.40;62.50
20568;DHT22;10442;49.932;11.592;2024-01-10T08:52:55;-1.40;61.70
20568;DHT22;10442;49.932;11.592;2024-01-10T08:55:26;-1.30;61.70
20568;DHT22;10442;49.932;11.592;2024-01-10T08:57:53;-1.30;61.90
20568;DHT22;10442;49.932;11.592;2024-01-10T09:00:21;-1.20;61.90
20568;DHT22;10442;49.932;11.592;2024-01-10T09:02:49;-1.10;61.90
20568;DHT22;10442;49.932;11.592;2024-01-10T09:05:17;-1.00;61.70
20568;DHT22;10442;49.932;11.592;2024-01-10T09:07:50;-1.00;61.50
20568;DHT22;10442;49.932;11.592;2024-01-10T09:10:19;-0.90;61.40
20568;DHT22;10442;49.932;11.592;2024-01-10T09:12:49;-0.80;61.20
20568;DHT22;10442;49.932;11.592;2024-01-10T09:15:18;-0.70;61.10
20568;DHT22;10442;49.932;11.592;2024-01-10T09:17:46;-0.60;60.90
20568;DHT22;10442;49.932;11.592;2024-01-10T09:20:14;-0.60;60.90
20568;DHT22;10442;49.932;11.592;2024-01-10T09:22:42;-0.50;60.90
20568;DHT22;10442;49.932;11.592;2024-01-10T09:25:11;-0.40;60.80
20568;DHT22;10442;49.932;11.592;2024-01-10T09:27:39;-0.30;60.70
20568;DHT22;10442;49.932;11.592;2024-01-10T09:30:15;-0.20;60.70
20568;DHT22;10442;49.932;11.592;2024-01-10T09:32:46;-0.10;60.50
20568;DHT22;10442;49.932;11.592;2024-01-10T09:35:15;0.00;60.30
20568;DHT22;10442;49.932;11.592;2024-01-10T09:37:43;0.20;60.20
20568;DHT22;10442;49.932;11.592;2024-01-10T09:40:14;0.20;60.00
20568;DHT22;10442;49.932;11.592;2024-01-10T09:42:44;0.30;59.80
20568;DHT22;10442;49.932;11.592;2024-01-10T09:45:11;0.40;59.50
20568;DHT22;10442;49.932;11.592;2024-01-10T09:47:43;0.50;59.20
20568;DHT22;10442;49.932;11.592;2024-01-10T09:50:12;0.60;59.10
20568;DHT22;10442;49.932;11.592;2024-01-10T09:55:15;0.80;58.90
20568;DHT22;10442;49.932;11.592;2024-01-10T09:57:44;0.90;58.80
20568;DHT22;10442;49.932;11.592;2024-01-10T10:00:15;1.00;58.70
20568;DHT22;10442;49.932;11.592;2024-01-10T10:02:45;1.00;58.70
20568;DHT22;10442;49.932;11.592;2024-01-10T10:05:17;1.10;58.50
20568;DHT22;10442;49.932;11.592;2024-01-10T10:07:46;1.20;58.40
20568;DHT22;10442;49.932;11.592;2024-01-10T10:10:15;1.20;58.30
20568;DHT22;10442;49.932;11.592;2024-01-10T10:12:53;1.30;58.20
20568;DHT22;10442;49.932;11.592;2024-01-10T10:15:23;1.40;58.20
20568;DHT22;10442;49.932;11.592;2024-01-10T10:17:52;1.50;58.20
20568;DHT22;10442;49.932;11.592;2024-01-10T10:20:26;1.50;58.00
20568;DHT22;10442;49.932;11.592;2024-01-10T10:23:28;1.60;57.80
20568;DHT22;10442;49.932;11.592;2024-01-10T10:25:48;1.70;57.70
20568;DHT22;10442;49.932;11.592;2024-01-10T10:28:16;1.70;57.70
20568;DHT22;10442;49.932;11.592;2024-01-10T10:30:56;1.80;57.70
20568;DHT22;10442;49.932;11.592;2024-01-10T10:33:24;1.90;57.60
20568;DHT22;10442;49.932;11.592;2024-01-10T10:35:52;1.90;57.30
20568;DHT22;10442;49.932;11.592;2024-01-10T10:38:22;2.00;57.10
20568;DHT22;10442;49.932;11.592;2024-01-10T10:40:51;2.00;57.10
20568;DHT22;10442;49.932;11.592;2024-01-10T10:43:21;2.10;57.10
20568;DHT22;10442;49.932;11.592;2024-01-10T10:45:50;2.20;57.00
20568;DHT22;10442;49.932;11.592;2024-01-10T10:48:19;2.20;57.20
20568;DHT22;10442;49.932;11.592;2024-01-10T10:53:42;2.40;56.80
20568;DHT22;10442;49.932;11.592;2024-01-10T10:56:13;2.40;56.80
20568;DHT22;10442;49.932;11.592;2024-01-10T10:58:43;2.50;56.60
20568;DHT22;10442;49.932;11.592;2024-01-10T11:01:12;2.60;56.40
20568;DHT22;10442;49.932;11.592;2024-01-10T11:03:41;2.60;56.40
20568;DHT22;10442;49.932;11.592;2024-01-10T11:06:12;2.70;56.30
20568;DHT22;10442;49.932;11.592;2024-01-10T11:08:47;2.80;56.10
20568;DHT22;10442;49.932;11.592;2024-01-10T11:11:38;2.80;55.90
20568;DHT22;10442;49.932;11.592;2024-01-10T11:14:35;2.90;55.90
20568;DHT22;10442;49.932;11.592;2024-01-10T11:17:29;3.00;56.00
20568;DHT22;10442;49.932;11.592;2024-01-10T11:20:22;3.10;55.90
20568;DHT22;10442;49.932;11.592;2024-01-10T11:25:30;3.20;55.80
20568;DHT22;10442;49.932;11.592;2024-01-10T11:28:04;3.20;55.70
20568;DHT22;10442;49.932;11.592;2024-01-10T11:30:49;3.30;55.30
20568;DHT22;10442;49.932;11.592;2024-01-10T11:33:24;3.30;55.20
20568;DHT22;10442;49.932;11.592;2024-01-10T11:36:26;3.40;55.40
20568;DHT22;10442;49.932;11.592;2024-01-10T11:41:26;3.50;54.60
20568;DHT22;10442;49.932;11.592;2024-01-10T11:46:47;3.60;54.40
20568;DHT22;10442;49.932;11.592;2024-01-10T11:49:18;3.70;54.80
20568;DHT22;10442;49.932;11.592;2024-01-10T11:51:48;3.70;54.60
20568;DHT22;10442;49.932;11.592;2024-01-10T11:54:36;3.80;54.50
20568;DHT22;10442;49.932;11.592;2024-01-10T11:57:10;3.90;54.30
20568;DHT22;10442;49.932;11.592;2024-01-10T11:59:43;3.90;54.20
20568;DHT22;10442;49.932;11.592;2024-01-10T12:02:15;4.00;54.20
20568;DHT22;10442;49.932;11.592;2024-01-10T12:04:43;4.10;54.10
20568;DHT22;10442;49.932;11.592;2024-01-10T12:07:16;4.10;53.90
20568;DHT22;10442;49.932;11.592;2024-01-10T12:09:46;4.20;53.90
20568;DHT22;10442;49.932;11.592;2024-01-10T12:12:15;4.20;53.70
20568;DHT22;10442;49.932;11.592;2024-01-10T12:14:43;4.30;53.50
20568;DHT22;10442;49.932;11.592;2024-01-10T12:17:11;4.30;53.60
20568;DHT22;10442;49.932;11.592;2024-01-10T12:19:39;4.40;53.70
20568;DHT22;10442;49.932;11.592;2024-01-10T12:22:07;4.40;53.30
20568;DHT22;10442;49.932;11.592;2024-01-10T12:25:04;4.40;53.40
20568;DHT22;10442;49.932;11.592;2024-01-10T12:27:32;4.50;53.00
20568;DHT22;10442;49.932;11.592;2024-01-10T12:30:00;4.50;53.10
20568;DHT22;10442;49.932;11.592;2024-01-10T12:32:31;4.50;53.20
20568;DHT22;10442;49.932;11.592;2024-01-10T12:35:03;4.50;53.10
20568;DHT22;10442;49.932;11.592;2024-01-10T12:37:32;4.60;53.00
20568;DHT22;10442;49.932;11.592;2024-01-10T12:40:00;4.60;52.70
20568;DHT22;10442;49.932;11.592;2024-01-10T12:42:29;4.60;52.90
20568;DHT22;10442;49.932;11.592;2024-01-10T12:44:57;4.60;52.90
20568;DHT22;10442;49.932;11.592;2024-01-10T12:47:25;4.60;53.00
20568;DHT22;10442;49.932;11.592;2024-01-10T12:49:53;4.60;52.90
20568;DHT22;10442;49.932;11.592;2024-01-10T12:52:22;4.60;53.00
20568;DHT22;10442;49.932;11.592;2024-01-10T12:54:52;4.60;52.70
20568;DHT22;10442;49.932;11.592;2024-01-10T12:57:21;4.60;52.50
20568;DHT22;10442;49.932;11.592;2024-01-10T12:59:49;4.60;52.30
20568;DHT22;10442;49.932;11.592;2024-01-10T13:02:17;4.60;52.50
20568;DHT22;10442;49.932;11.592;2024-01-10T13:04:45;4.60;52.30
20568;DHT22;10442;49.932;11.592;2024-01-10T13:07:13;4.60;52.60
20568;DHT22;10442;49.932;11.592;2024-01-10T13:09:40;4.60;52.80
20568;DHT22;10442;49.932;11.592;2024-01-10T13:12:08;4.60;52.60
20568;DHT22;10442;49.932;11.592;2024-01-10T13:14:36;4.70;52.60
20568;DHT22;10442;49.932;11.592;2024-01-10T13:17:04;4.70;52.60
20568;DHT22;10442;49.932;11.592;2024-01-10T13:19:32;4.60;52.60
20568;DHT22;10442;49.932;11.592;2024-01-10T13:22:00;4.70;52.50
20568;DHT22;10442;49.932;11.592;2024-01-10T13:24:31;4.70;52.80
20568;DHT22;10442;49.932;11.592;2024-01-10T13:26:59;4.70;52.80
20568;DHT22;10442;49.932;11.592;2024-01-10T13:29:26;4.70;52.80
20568;DHT22;10442;49.932;11.592;2024-01-10T13:31:54;4.70;52.60
20568;DHT22;10442;49.932;11.592;2024-01-10T13:34:22;4.70;52.70
20568;DHT22;10442;49.932;11.592;2024-01-10T13:36:51;4.70;52.60
20568;DHT22;10442;49.932;11.592;2024-01-10T13:39:19;4.70;52.60
20568;DHT22;10442;49.932;11.592;2024-01-10T13:41:46;4.70;52.70
20568;DHT22;10442;49.932;11.592;2024-01-10T13:44:15;4.70;52.60
20568;DHT22;10442;49.932;11.592;2024-01-10T13:46:43;4.70;52.60
20568;DHT22;10442;49.932;11.592;2024-01-10T13:49:11;4.70;52.40
20568;DHT22;10442;49.932;11.592;2024-01-10T13:51:39;4.70;52.40
20568;DHT22;10442;49.932;11.592;2024-01-10T13:54:08;4.60;52.60
20568;DHT22;10442;49.932;11.592;2024-01-10T13:56:38;4.60;52.90
20568;DHT22;10442;49.932;11.592;2024-01-10T13:59:07;4.60;52.70
20568;DHT22;10442;49.932;11.592;2024-01-10T14:01:35;4.60;52.80
20568;DHT22;10442;49.932;11.592;2024-01-10T14:04:05;4.60;53.00
20568;DHT22;10442;49.932;11.592;2024-01-10T14:06:33;4.60;53.00
20568;DHT22;10442;49.932;11.592;2024-01-10T14:09:00;4.60;53.20
20568;DHT22;10442;49.932;11.592;2024-01-10T14:11:31;4.60;53.10
20568;DHT22;10442;49.932;11.592;2024-01-10T14:14:00;4.50;53.10
20568;DHT22;10442;49.932;11.592;2024-01-10T14:16:29;4.50;52.80
20568;DHT22;10442;49.932;11.592;2024-01-10T14:18:58;4.50;52.90
20568;DHT22;10442;49.932;11.592;2024-01-10T14:21:26;4.50;52.90
20568;DHT22;10442;49.932;11.592;2024-01-10T14:23:55;4.50;52.70
20568;DHT22;10442;49.932;11.592;2024-01-10T14:26:23;4.40;52.70
20568;DHT22;10442;49.932;11.592;2024-01-10T14:28:52;4.40;52.60
20568;DHT22;10442;49.932;11.592;2024-01-10T14:31:23;4.40;52.60
20568;DHT22;10442;49.932;11.592;2024-01-10T14:34:05;4.30;52.50
20568;DHT22;10442;49.932;11.592;2024-01-10T14:36:37;4.30;52.50
20568;DHT22;10442;49.932;11.592;2024-01-10T14:39:05;4.30;52.60
20568;DHT22;10442;49.932;11.592;2024-01-10T14:41:35;4.20;52.60
20568;DHT22;10442;49.932;11.592;2024-01-10T14:44:03;4.20;52.80
20568;DHT22;10442;49.932;11.592;2024-01-10T14:46:32;4.20;52.80
20568;DHT22;10442;49.932;11.592;2024-01-10T14:49:00;4.10;52.90
20568;DHT22;10442;49.932;11.592;2024-01-10T14:51:28;4.10;53.20
20568;DHT22;10442;49.932;11.592;2024-01-10T14:53:55;4.10;53.40
20568;DHT22;10442;49.932;11.592;2024-01-10T14:56:24;4.00;53.40
20568;DHT22;10442;49.932;11.592;2024-01-10T14:58:51;4.00;53.50
20568;DHT22;10442;49.932;11.592;2024-01-10T15:01:19;4.00;53.50
20568;DHT22;10442;49.932;11.592;2024-01-10T15:03:47;3.90;53.40
20568;DHT22;10442;49.932;11.592;2024-01-10T15:06:15;3.80;53.30
20568;DHT22;10442;49.932;11.592;2024-01-10T15:08:43;3.80;53.40
20568;DHT22;10442;49.932;11.592;2024-01-10T15:11:11;3.80;53.50
20568;DHT22;10442;49.932;11.592;2024-01-10T15:13:41;3.70;53.50
20568;DHT22;10442;49.932;11.592;2024-01-10T15:16:11;3.70;53.70
20568;DHT22;10442;49.932;11.592;2024-01-10T15:18:41;3.70;53.70
20568;DHT22;10442;49.932;11.592;2024-01-10T15:21:09;3.60;53.80
20568;DHT22;10442;49.932;11.592;2024-01-10T15:23:38;3.60;53.90
20568;DHT22;10442;49.932;11.592;2024-01-10T15:26:06;3.50;54.00
20568;DHT22;10442;49.932;11.592;2024-01-10T15:28:34;3.50;54.00
20568;DHT22;10442;49.932;11.592;2024-01-10T15:31:01;3.40;54.30
20568;DHT22;10442;49.932;11.592;2024-01-10T15:33:30;3.30;54.40
20568;DHT22;10442;49.932;11.592;2024-01-10T15:36:00;3.30;54.40
20568;DHT22;10442;49.932;11.592;2024-01-10T15:38:28;3.20;54.30
20568;DHT22;10442;49.932;11.592;2024-01-10T15:40:56;3.20;54.40
20568;DHT22;10442;49.932;11.592;2024-01-10T15:43:26;3.10;54.40
20568;DHT22;10442;49.932;11.592;2024-01-10T15:45:54;3.00;54.50
20568;DHT22;10442;49.932;11.592;2024-01-10T15:48:23;3.00;54.60